sensor_id;sensor_type;location;lat;lon;timestamp;P1;durP1;ratioP1;P2;durP2;ratioP2
61638;SDS011;47544;52.484;4.658;2023-04-01T00:00:02;87.95;;;9.07;;
61638;SDS011;47544;52.484;4.658;2023-04-01T00:00:13;82.35;;;8.60;;
61638;SDS011;47544;52.484;4.658;2023-04-01T00:00:24;79.45;;;8.23;;
61638;SDS011;47544;52.484;4.658;2023-04-01T00:00:35;75.63;;;8.15;;
61638;SDS011;47544;52.484;4.658;2023-04-01T00:00:46;87.40;;;8.27;;
61638;SDS011;47544;52.484;4.658;2023-04-01T00:00:57;102.43;;;8.98;;
61638;SDS011;47544;52.484;4.658;2023-04-01T00:01:10;101.72;;;8.60;;
61638;SDS011;47544;52.484;4.658;2023-04-01T00:01:22;110.43;;;8.80;;
61638;SDS011;47544;52.484;4.658;2023-04-01T00:01:33;113.10;;;9.15;;
61638;SDS011;47544;52.484;4.658;2023-04-01T00:01:44;115.10;;;9.67;;
61638;SDS011;47544;52.484;4.658;2023-04-01T00:01:55;110.97;;;9.45;;
61638;SDS011;47544;52.484;4.658;2023-04-01T00:02:06;117.07;;;9.82;;
61638;SDS011;47544;52.484;4.658;2023-04-01T00:02:18;103.70;;;9.63;;
61638;SDS011;47544;52.484;4.658;2023-04-01T00:02:28;87.97;;;9.32;;
61638;SDS011;47544;52.484;4.658;2023-04-01T00:02:40;79.82;;;9.27;;
61638;SDS011;47544;52.484;4.658;2023-04-01T00:02:51;85.85;;;9.02;;
61638;SDS011;47544;52.484;4.658;2023-04-01T00:03:02;91.85;;;8.90;;
61638;SDS011;47544;52.484;4.658;2023-04-01T00:03:13;105.63;;;9.05;;
61638;SDS011;47544;52.484;4.658;2023-04-01T00:03:24;106.22;;;9.00;;
61638;SDS011;47544;52.484;4.658;2023-04-01T00:03:36;109.15;;;8.60;;
61638;SDS011;47544;52.484;4.658;2023-04-01T00:03:47;113.18;;;8.35;;
61638;SDS011;47544;52.484;4.658;2023-04-01T00:03:59;111.10;;;8.40;;
61638;SDS011;47544;52.484;4.658;2023-04-01T00:04:12;93.72;;;8.40;;
61638;SDS011;47544;52.484;4.658;2023-04-01T00:04:23;92.15;;;8.65;;
61638;SDS011;47544;52.484;4.658;2023-04-01T00:04:34;98.63;;;9.00;;
61638;SDS011;47544;52.484;4.658;2023-04-01T00:04:45;101.10;;;9.17;;
61638;SDS011;47544;52.484;4.658;2023-04-01T00:04:57;99.22;;;9.43;;
61638;SDS011;47544;52.484;4.658;2023-04-01T00:05:08;94.65;;;9.23;;
61638;SDS011;47544;52.484;4.658;2023-04-01T00:05:21;100.55;;;8.63;;
61638;SDS011;47544;52.484;4.658;2023-04-01T00:05:31;103.03;;;8.35;;
61638;SDS011;47544;52.484;4.658;2023-04-01T00:05:42;96.32;;;8.23;;
61638;SDS011;47544;52.484;4.658;2023-04-01T00:05:54;83.18;;;8.25;;
61638;SDS011;47544;52.484;4.658;2023-04-01T00:06:06;96.03;;;8.57;;
61638;SDS011;47544;52.484;4.658;2023-04-01T00:06:17;118.13;;;8.60;;
61638;SDS011;47544;52.484;4.658;2023-04-01T00:06:29;132.48;;;8.52;;
61638;SDS011;47544;52.484;4.658;2023-04-01T00:06:40;123.20;;;8.00;;
61638;SDS011;47544;52.484;4.658;2023-04-01T00:06:51;137.10;;;8.38;;
61638;SDS011;47544;52.484;4.658;2023-04-01T00:07:02;138.98;;;8.40;;
61638;SDS011;47544;52.484;4.658;2023-04-01T00:07:14;145.02;;;8.77;;
61638;SDS011;47544;52.484;4.658;2023-04-01T00:07:25;144.20;;;8.93;;
61638;SDS011;47544;52.484;4.658;2023-04-01T00:07:36;121.40;;;8.13;;
61638;SDS011;47544;52.484;4.658;2023-04-01T00:07:47;104.63;;;7.70;;
61638;SDS011;47544;52.484;4.658;2023-04-01T00:07:58;97.10;;;7.43;;
61638;SDS011;47544;52.484;4.658;2023-04-01T00:08:08;111.20;;;7.80;;
61638;SDS011;47544;52.484;4.658;2023-04-01T00:08:19;99.57;;;7.60;;
61638;SDS011;47544;52.484;4.658;2023-04-01T00:08:30;83.13;;;7.55;;
61638;SDS011;47544;52.484;4.658;2023-04-01T00:08:42;105.05;;;8.13;;
61638;SDS011;47544;52.484;4.658;2023-04-01T00:08:54;143.07;;;9.18;;
61638;SDS011;47544;52.484;4.658;2023-04-01T00:09:05;149.38;;;9.40;;
61638;SDS011;47544;52.484;4.658;2023-04-01T00:09:16;128.77;;;9.23;;
61638;SDS011;47544;52.484;4.658;2023-04-01T00:09:28;130.70;;;9.30;;
61638;SDS011;47544;52.484;4.658;2023-04-01T00:09:38;141.57;;;9.23;;
61638;SDS011;47544;52.484;4.658;2023-04-01T00:09:50;140.43;;;8.88;;
61638;SDS011;47544;52.484;4.658;2023-04-01T00:10:02;122.20;;;8.48;;
61638;SDS011;47544;52.484;4.658;2023-04-01T00:10:13;127.25;;;8.68;;
61638;SDS011;47544;52.484;4.658;2023-04-01T00:10:24;122.97;;;8.43;;
61638;SDS011;47544;52.484;4.658;2023-04-01T00:10:34;128.17;;;8.37;;
61638;SDS011;47544;52.484;4.658;2023-04-01T00:10:45;146.20;;;8.80;;
61638;SDS011;47544;52.484;4.658;2023-04-01T00:10:56;147.82;;;9.10;;
61638;SDS011;47544;52.484;4.658;2023-04-01T00:11:07;151.57;;;9.48;;
61638;SDS011;47544;52.484;4.658;2023-04-01T00:11:19;189.45;;;11.20;;
61638;SDS011;47544;52.484;4.658;2023-04-01T00:11:30;285.27;;;15.75;;
61638;SDS011;47544;52.484;4.658;2023-04-01T00:11:41;299.95;;;16.77;;
61638;SDS011;47544;52.484;4.658;2023-04-01T00:11:52;211.70;;;13.18;;
61638;SDS011;47544;52.484;4.658;2023-04-01T00:12:03;134.85;;;9.43;;
61638;SDS011;47544;52.484;4.658;2023-04-01T00:12:13;105.03;;;8.40;;
61638;SDS011;47544;52.484;4.658;2023-04-01T00:12:25;101.88;;;8.70;;
61638;SDS011;47544;52.484;4.658;2023-04-01T00:12:37;122.38;;;9.73;;
61638;SDS011;47544;52.484;4.658;2023-04-01T00:12:48;153.23;;;10.52;;
61638;SDS011;47544;52.484;4.658;2023-04-01T00:12:58;166.75;;;10.90;;
61638;SDS011;47544;52.484;4.658;2023-04-01T00:13:10;157.50;;;11.00;;
61638;SDS011;47544;52.484;4.658;2023-04-01T00:13:21;154.20;;;10.80;;
61638;SDS011;47544;52.484;4.658;2023-04-01T00:13:32;143.18;;;10.20;;
61638;SDS011;47544;52.484;4.658;2023-04-01T00:13:43;136.02;;;9.60;;
61638;SDS011;47544;52.484;4.658;2023-04-01T00:13:53;125.03;;;9.27;;
61638;SDS011;47544;52.484;4.658;2023-04-01T00:14:06;114.13;;;9.30;;
61638;SDS011;47544;52.484;4.658;2023-04-01T00:14:17;115.82;;;9.75;;
61638;SDS011;47544;52.484;4.658;2023-04-01T00:14:28;108.28;;;9.88;;
61638;SDS011;47544;52.484;4.658;2023-04-01T00:14:40;101.35;;;9.85;;
61638;SDS011;47544;52.484;4.658;2023-04-01T00:14:51;123.03;;;10.38;;
61638;SDS011;47544;52.484;4.658;2023-04-01T00:15:02;126.82;;;10.70;;
61638;SDS011;47544;52.484;4.658;2023-04-01T00:15:13;135.48;;;10.93;;
61638;SDS011;47544;52.484;4.658;2023-04-01T00:15:24;114.55;;;10.38;;
61638;SDS011;47544;52.484;4.658;2023-04-01T00:15:36;113.13;;;10.38;;
61638;SDS011;47544;52.484;4.658;2023-04-01T00:15:47;109.85;;;10.38;;
61638;SDS011;47544;52.484;4.658;2023-04-01T00:15:58;115.00;;;10.23;;
61638;SDS011;47544;52.484;4.658;2023-04-01T00:16:09;108.82;;;9.32;;
61638;SDS011;47544;52.484;4.658;2023-04-01T00:16:20;104.40;;;8.80;;
61638;SDS011;47544;52.484;4.658;2023-04-01T00:16:31;100.68;;;8.50;;
61638;SDS011;47544;52.484;4.658;2023-04-01T00:16:42;99.05;;;8.73;;
61638;SDS011;47544;52.484;4.658;2023-04-01T00:16:53;87.95;;;8.65;;
61638;SDS011;47544;52.484;4.658;2023-04-01T00:17:05;102.68;;;9.10;;
61638;SDS011;47544;52.484;4.658;2023-04-01T00:17:16;101.70;;;9.13;;
61638;SDS011;47544;52.484;4.658;2023-04-01T00:17:27;108.70;;;9.55;;
61638;SDS011;47544;52.484;4.658;2023-04-01T00:17:38;85.47;;;8.95;;
61638;SDS011;47544;52.484;4.658;2023-04-01T00:17:49;92.28;;;9.10;;
61638;SDS011;47544;52.484;4.658;2023-04-01T00:18:00;88.50;;;9.00;;
61638;SDS011;47544;52.484;4.658;2023-04-01T00:18:11;83.28;;;8.82;;
61638;SDS011;47544;52.484;4.658;2023-04-01T00:18:23;77.63;;;8.30;;
61638;SDS011;47544;52.484;4.658;2023-04-01T00:18:34;88.88;;;8.57;;
61638;SDS011;47544;52.484;4.658;2023-04-01T00:18:44;90.53;;;8.52;;
61638;SDS011;47544;52.484;4.658;2023-04-01T00:18:57;88.80;;;8.50;;
61638;SDS011;47544;52.484;4.658;2023-04-01T00:19:08;88.78;;;8.85;;
61638;SDS011;47544;52.484;4.658;2023-04-01T00:19:19;93.30;;;9.38;;
61638;SDS011;47544;52.484;4.658;2023-04-01T00:19:30;91.03;;;9.40;;
61638;SDS011;47544;52.484;4.658;2023-04-01T00:19:42;92.57;;;9.43;;
61638;SDS011;47544;52.484;4.658;2023-04-01T00:19:54;122.32;;;12.88;;
61638;SDS011;47544;52.484;4.658;2023-04-01T00:20:07;268.25;;;27.83;;
61638;SDS011;47544;52.484;4.658;2023-04-01T00:20:18;269.77;;;28.20;;
61638;SDS011;47544;52.484;4.658;2023-04-01T00:20:29;109.63;;;11.73;;
61638;SDS011;47544;52.484;4.658;2023-04-01T00:20:43;103.95;;;11.27;;
61638;SDS011;47544;52.484;4.658;2023-04-01T00:20:54;98.35;;;11.20;;
61638;SDS011;47544;52.484;4.658;2023-04-01T00:21:05;73.18;;;10.15;;
61638;SDS011;47544;52.484;4.658;2023-04-01T00:21:17;70.15;;;10.13;;
61638;SDS011;47544;52.484;4.658;2023-04-01T00:21:28;85.60;;;10.35;;
61638;SDS011;47544;52.484;4.658;2023-04-01T00:21:39;102.65;;;10.60;;
61638;SDS011;47544;52.484;4.658;2023-04-01T00:21:50;104.65;;;11.20;;
61638;SDS011;47544;52.484;4.658;2023-04-01T00:22:02;92.32;;;11.25;;
61638;SDS011;47544;52.484;4.658;2023-04-01T00:22:14;84.63;;;11.43;;
61638;SDS011;47544;52.484;4.658;2023-04-01T00:22:25;87.90;;;11.43;;
61638;SDS011;47544;52.484;4.658;2023-04-01T00:22:36;93.03;;;11.52;;
61638;SDS011;47544;52.484;4.658;2023-04-01T00:22:47;97.35;;;11.38;;
61638;SDS011;47544;52.484;4.658;2023-04-01T00:22:58;89.35;;;10.65;;
61638;SDS011;47544;52.484;4.658;2023-04-01T00:23:09;84.43;;;10.43;;
61638;SDS011;47544;52.484;4.658;2023-04-01T00:23:20;188.75;;;14.45;;
61638;SDS011;47544;52.484;4.658;2023-04-01T00:23:31;193.75;;;14.73;;
61638;SDS011;47544;52.484;4.658;2023-04-01T00:23:43;149.20;;;13.25;;
61638;SDS011;47544;52.484;4.658;2023-04-01T00:23:54;81.15;;;10.43;;
61638;SDS011;47544;52.484;4.658;2023-04-01T00:24:05;74.57;;;9.85;;
61638;SDS011;47544;52.484;4.658;2023-04-01T00:24:16;68.90;;;9.27;;
61638;SDS011;47544;52.484;4.658;2023-04-01T00:24:27;76.25;;;9.45;;
61638;SDS011;47544;52.484;4.658;2023-04-01T00:24:38;85.10;;;9.90;;
61638;SDS011;47544;52.484;4.658;2023-04-01T00:24:49;99.95;;;10.35;;
61638;SDS011;47544;52.484;4.658;2023-04-01T00:25:01;91.07;;;10.07;;
61638;SDS011;47544;52.484;4.658;2023-04-01T00:25:12;88.22;;;9.68;;
61638;SDS011;47544;52.484;4.658;2023-04-01T00:25:24;80.28;;;9.48;;
61638;SDS011;47544;52.484;4.658;2023-04-01T00:25:35;103.40;;;10.38;;
61638;SDS011;47544;52.484;4.658;2023-04-01T00:25:46;119.25;;;11.48;;
61638;SDS011;47544;52.484;4.658;2023-04-01T00:25:58;115.72;;;11.10;;
61638;SDS011;47544;52.484;4.658;2023-04-01T00:26:10;81.70;;;9.75;;
61638;SDS011;47544;52.484;4.658;2023-04-01T00:26:22;136.50;;;12.32;;
61638;SDS011;47544;52.484;4.658;2023-04-01T00:26:33;132.83;;;12.23;;
61638;SDS011;47544;52.484;4.658;2023-04-01T00:26:45;155.00;;;13.75;;
61638;SDS011;47544;52.484;4.658;2023-04-01T00:26:58;118.43;;;12.38;;
61638;SDS011;47544;52.484;4.658;2023-04-01T00:27:10;167.00;;;14.52;;
61638;SDS011;47544;52.484;4.658;2023-04-01T00:27:21;169.57;;;14.82;;
61638;SDS011;47544;52.484;4.658;2023-04-01T00:27:32;109.70;;;12.20;;
61638;SDS011;47544;52.484;4.658;2023-04-01T00:27:43;120.75;;;12.60;;
61638;SDS011;47544;52.484;4.658;2023-04-01T00:27:54;120.82;;;12.23;;
61638;SDS011;47544;52.484;4.658;2023-04-01T00:28:05;148.38;;;12.85;;
61638;SDS011;47544;52.484;4.658;2023-04-01T00:28:17;137.55;;;12.20;;
61638;SDS011;47544;52.484;4.658;2023-04-01T00:28:28;109.22;;;11.13;;
61638;SDS011;47544;52.484;4.658;2023-04-01T00:28:39;67.07;;;10.27;;
61638;SDS011;47544;52.484;4.658;2023-04-01T00:28:51;80.35;;;11.63;;
61638;SDS011;47544;52.484;4.658;2023-04-01T00:29:02;74.55;;;11.82;;
61638;SDS011;47544;52.484;4.658;2023-04-01T00:29:13;69.00;;;11.15;;
61638;SDS011;47544;52.484;4.658;2023-04-01T00:29:25;61.80;;;10.75;;
61638;SDS011;47544;52.484;4.658;2023-04-01T00:29:41;69.05;;;11.10;;
61638;SDS011;47544;52.484;4.658;2023-04-01T00:29:53;66.15;;;10.63;;
61638;SDS011;47544;52.484;4.658;2023-04-01T00:30:04;57.90;;;10.32;;
61638;SDS011;47544;52.484;4.658;2023-04-01T00:30:15;57.40;;;10.43;;
61638;SDS011;47544;52.484;4.658;2023-04-01T00:30:26;57.63;;;10.93;;
61638;SDS011;47544;52.484;4.658;2023-04-01T00:30:37;55.55;;;10.85;;
61638;SDS011;47544;52.484;4.658;2023-04-01T00:30:49;53.63;;;10.85;;
61638;SDS011;47544;52.484;4.658;2023-04-01T00:31:03;56.47;;;11.30;;
61638;SDS011;47544;52.484;4.658;2023-04-01T00:31:14;55.47;;;10.77;;
61638;SDS011;47544;52.484;4.658;2023-04-01T00:31:25;52.72;;;9.85;;
61638;SDS011;47544;52.484;4.658;2023-04-01T00:31:36;52.60;;;9.68;;
61638;SDS011;47544;52.484;4.658;2023-04-01T00:31:47;57.22;;;10.48;;
61638;SDS011;47544;52.484;4.658;2023-04-01T00:31:59;58.38;;;11.13;;
61638;SDS011;47544;52.484;4.658;2023-04-01T00:32:12;59.28;;;11.30;;
61638;SDS011;47544;52.484;4.658;2023-04-01T00:32:23;59.95;;;11.73;;
61638;SDS011;47544;52.484;4.658;2023-04-01T00:32:34;52.85;;;11.23;;
61638;SDS011;47544;52.484;4.658;2023-04-01T00:32:45;55.00;;;10.98;;
61638;SDS011;47544;52.484;4.658;2023-04-01T00:32:56;52.08;;;10.40;;
61638;SDS011;47544;52.484;4.658;2023-04-01T00:33:07;47.05;;;10.32;;
61638;SDS011;47544;52.484;4.658;2023-04-01T00:33:19;48.85;;;11.13;;
61638;SDS011;47544;52.484;4.658;2023-04-01T00:33:30;50.63;;;11.23;;
61638;SDS011;47544;52.484;4.658;2023-04-01T00:33:41;53.30;;;11.10;;
61638;SDS011;47544;52.484;4.658;2023-04-01T00:33:52;57.50;;;11.55;;
61638;SDS011;47544;52.484;4.658;2023-04-01T00:34:03;53.10;;;11.68;;
61638;SDS011;47544;52.484;4.658;2023-04-01T00:34:14;45.20;;;11.48;;
61638;SDS011;47544;52.484;4.658;2023-04-01T00:34:25;44.85;;;11.20;;
61638;SDS011;47544;52.484;4.658;2023-04-01T00:34:37;50.20;;;11.73;;
61638;SDS011;47544;52.484;4.658;2023-04-01T00:34:50;54.25;;;11.98;;
61638;SDS011;47544;52.484;4.658;2023-04-01T00:35:02;55.40;;;12.30;;
61638;SDS011;47544;52.484;4.658;2023-04-01T00:35:15;58.72;;;12.38;;
61638;SDS011;47544;52.484;4.658;2023-04-01T00:35:26;55.78;;;12.68;;
61638;SDS011;47544;52.484;4.658;2023-04-01T00:35:37;52.22;;;12.35;;
61638;SDS011;47544;52.484;4.658;2023-04-01T00:35:48;53.33;;;11.75;;
61638;SDS011;47544;52.484;4.658;2023-04-01T00:36:05;56.23;;;11.70;;
61638;SDS011;47544;52.484;4.658;2023-04-01T00:36:18;58.75;;;12.73;;
61638;SDS011;47544;52.484;4.658;2023-04-01T00:36:29;51.75;;;12.13;;
61638;SDS011;47544;52.484;4.658;2023-04-01T00:36:40;52.47;;;11.68;;
61638;SDS011;47544;52.484;4.658;2023-04-01T00:36:51;49.50;;;11.02;;
61638;SDS011;47544;52.484;4.658;2023-04-01T00:37:02;55.60;;;11.73;;
61638;SDS011;47544;52.484;4.658;2023-04-01T00:37:13;54.17;;;12.32;;
61638;SDS011;47544;52.484;4.658;2023-04-01T00:37:24;65.00;;;13.10;;
61638;SDS011;47544;52.484;4.658;2023-04-01T00:37:35;64.47;;;12.98;;
61638;SDS011;47544;52.484;4.658;2023-04-01T00:37:47;54.38;;;11.15;;
61638;SDS011;47544;52.484;4.658;2023-04-01T00:37:59;51.78;;;10.48;;
61638;SDS011;47544;52.484;4.658;2023-04-01T00:38:10;51.92;;;10.65;;
61638;SDS011;47544;52.484;4.658;2023-04-01T00:38:21;51.08;;;10.85;;
61638;SDS011;47544;52.484;4.658;2023-04-01T00:38:33;46.40;;;10.27;;
61638;SDS011;47544;52.484;4.658;2023-04-01T00:38:44;46.05;;;10.20;;
61638;SDS011;47544;52.484;4.658;2023-04-01T00:38:55;45.20;;;10.68;;
61638;SDS011;47544;52.484;4.658;2023-04-01T00:39:08;42.78;;;10.05;;
61638;SDS011;47544;52.484;4.658;2023-04-01T00:39:20;42.42;;;9.32;;
61638;SDS011;47544;52.484;4.658;2023-04-01T00:39:32;40.50;;;8.82;;
61638;SDS011;47544;52.484;4.658;2023-04-01T00:39:43;43.05;;;9.25;;
61638;SDS011;47544;52.484;4.658;2023-04-01T00:39:55;55.38;;;10.30;;
61638;SDS011;47544;52.484;4.658;2023-04-01T00:40:06;69.20;;;11.30;;
61638;SDS011;47544;52.484;4.658;2023-04-01T00:40:23;70.05;;;11.40;;
61638;SDS011;47544;52.484;4.658;2023-04-01T00:40:35;64.03;;;11.35;;
61638;SDS011;47544;52.484;4.658;2023-04-01T00:40:47;58.50;;;10.80;;
61638;SDS011;47544;52.484;4.658;2023-04-01T00:40:58;46.45;;;9.63;;
61638;SDS011;47544;52.484;4.658;2023-04-01T00:41:09;44.10;;;9.60;;
61638;SDS011;47544;52.484;4.658;2023-04-01T00:41:24;47.95;;;9.85;;
61638;SDS011;47544;52.484;4.658;2023-04-01T00:41:36;58.17;;;10.45;;
61638;SDS011;47544;52.484;4.658;2023-04-01T00:41:47;87.93;;;12.02;;
61638;SDS011;47544;52.484;4.658;2023-04-01T00:41:58;111.38;;;13.15;;
61638;SDS011;47544;52.484;4.658;2023-04-01T00:42:10;93.78;;;12.10;;
61638;SDS011;47544;52.484;4.658;2023-04-01T00:42:22;61.65;;;10.13;;
61638;SDS011;47544;52.484;4.658;2023-04-01T00:42:33;41.08;;;8.88;;
61638;SDS011;47544;52.484;4.658;2023-04-01T00:42:44;55.97;;;10.33;;
61638;SDS011;47544;52.484;4.658;2023-04-01T00:42:55;61.00;;;11.25;;
61638;SDS011;47544;52.484;4.658;2023-04-01T00:43:10;65.68;;;12.00;;
61638;SDS011;47544;52.484;4.658;2023-04-01T00:43:21;165.55;;;16.20;;
61638;SDS011;47544;52.484;4.658;2023-04-01T00:43:34;173.52;;;17.13;;
61638;SDS011;47544;52.484;4.658;2023-04-01T00:43:46;135.70;;;15.68;;
61638;SDS011;47544;52.484;4.658;2023-04-01T00:44:24;62.15;;;11.68;;
61638;SDS011;47544;52.484;4.658;2023-04-01T00:44:40;62.85;;;12.05;;
61638;SDS011;47544;52.484;4.658;2023-04-01T00:44:52;66.18;;;12.30;;
61638;SDS011;47544;52.484;4.658;2023-04-01T00:45:31;59.70;;;12.20;;
61638;SDS011;47544;52.484;4.658;2023-04-01T00:45:43;56.40;;;11.13;;
61638;SDS011;47544;52.484;4.658;2023-04-01T00:45:54;54.47;;;9.93;;
61638;SDS011;47544;52.484;4.658;2023-04-01T00:46:05;68.30;;;11.02;;
61638;SDS011;47544;52.484;4.658;2023-04-01T00:46:16;62.92;;;10.77;;
61638;SDS011;47544;52.484;4.658;2023-04-01T00:46:28;67.15;;;11.55;;
61638;SDS011;47544;52.484;4.658;2023-04-01T00:46:38;68.57;;;11.77;;
61638;SDS011;47544;52.484;4.658;2023-04-01T00:46:50;78.88;;;12.93;;
61638;SDS011;47544;52.484;4.658;2023-04-01T00:47:03;78.97;;;13.48;;
61638;SDS011;47544;52.484;4.658;2023-04-01T00:47:14;77.20;;;13.25;;
61638;SDS011;47544;52.484;4.658;2023-04-01T00:47:25;72.05;;;12.35;;
61638;SDS011;47544;52.484;4.658;2023-04-01T00:47:37;70.95;;;11.40;;
61638;SDS011;47544;52.484;4.658;2023-04-01T00:47:48;74.40;;;12.02;;
61638;SDS011;47544;52.484;4.658;2023-04-01T00:47:59;70.32;;;12.43;;
61638;SDS011;47544;52.484;4.658;2023-04-01T00:48:13;66.07;;;12.02;;
61638;SDS011;47544;52.484;4.658;2023-04-01T00:48:26;64.95;;;11.77;;
61638;SDS011;47544;52.484;4.658;2023-04-01T00:48:39;76.55;;;12.75;;
61638;SDS011;47544;52.484;4.658;2023-04-01T00:48:52;81.25;;;13.15;;
61638;SDS011;47544;52.484;4.658;2023-04-01T00:49:04;79.43;;;12.75;;
61638;SDS011;47544;52.484;4.658;2023-04-01T00:49:15;73.25;;;12.13;;
61638;SDS011;47544;52.484;4.658;2023-04-01T00:49:28;60.85;;;11.15;;
61638;SDS011;47544;52.484;4.658;2023-04-01T00:49:40;55.55;;;10.23;;
61638;SDS011;47544;52.484;4.658;2023-04-01T00:49:53;54.85;;;9.70;;
61638;SDS011;47544;52.484;4.658;2023-04-01T00:50:06;61.15;;;10.15;;
61638;SDS011;47544;52.484;4.658;2023-04-01T00:50:18;66.53;;;11.02;;
61638;SDS011;47544;52.484;4.658;2023-04-01T00:50:29;75.50;;;12.48;;
61638;SDS011;47544;52.484;4.658;2023-04-01T00:50:42;72.78;;;12.50;;
61638;SDS011;47544;52.484;4.658;2023-04-01T00:50:56;69.43;;;12.27;;
61638;SDS011;47544;52.484;4.658;2023-04-01T00:51:09;63.85;;;11.48;;
61638;SDS011;47544;52.484;4.658;2023-04-01T00:51:22;62.47;;;11.60;;
61638;SDS011;47544;52.484;4.658;2023-04-01T00:51:34;67.70;;;11.85;;
61638;SDS011;47544;52.484;4.658;2023-04-01T00:51:47;68.88;;;11.57;;
61638;SDS011;47544;52.484;4.658;2023-04-01T00:51:59;69.65;;;11.77;;
61638;SDS011;47544;52.484;4.658;2023-04-01T00:52:12;64.47;;;11.13;;
61638;SDS011;47544;52.484;4.658;2023-04-01T00:52:24;57.63;;;11.00;;
61638;SDS011;47544;52.484;4.658;2023-04-01T00:52:36;52.42;;;11.00;;
61638;SDS011;47544;52.484;4.658;2023-04-01T00:52:48;52.15;;;11.70;;
61638;SDS011;47544;52.484;4.658;2023-04-01T00:52:59;60.20;;;12.00;;
61638;SDS011;47544;52.484;4.658;2023-04-01T00:53:10;69.50;;;13.20;;
61638;SDS011;47544;52.484;4.658;2023-04-01T00:53:21;69.28;;;12.70;;
61638;SDS011;47544;52.484;4.658;2023-04-01T00:53:33;70.32;;;12.98;;
61638;SDS011;47544;52.484;4.658;2023-04-01T00:53:46;65.75;;;12.77;;
61638;SDS011;47544;52.484;4.658;2023-04-01T00:53:58;60.38;;;13.02;;
61638;SDS011;47544;52.484;4.658;2023-04-01T00:54:09;57.55;;;12.27;;
61638;SDS011;47544;52.484;4.658;2023-04-01T00:54:22;58.17;;;12.48;;
61638;SDS011;47544;52.484;4.658;2023-04-01T00:54:35;61.90;;;13.18;;
61638;SDS011;47544;52.484;4.658;2023-04-01T00:54:47;63.20;;;13.48;;
61638;SDS011;47544;52.484;4.658;2023-04-01T00:55:00;70.85;;;13.65;;
61638;SDS011;47544;52.484;4.658;2023-04-01T00:55:12;76.25;;;13.63;;
61638;SDS011;47544;52.484;4.658;2023-04-01T00:55:24;148.63;;;16.42;;
61638;SDS011;47544;52.484;4.658;2023-04-01T00:55:37;148.68;;;15.90;;
61638;SDS011;47544;52.484;4.658;2023-04-01T00:55:51;88.18;;;13.68;;
61638;SDS011;47544;52.484;4.658;2023-04-01T00:56:05;79.50;;;14.05;;
61638;SDS011;47544;52.484;4.658;2023-04-01T00:56:18;61.70;;;12.75;;
61638;SDS011;47544;52.484;4.658;2023-04-01T00:56:32;61.88;;;11.52;;
61638;SDS011;47544;52.484;4.658;2023-04-01T00:56:45;72.57;;;11.88;;
61638;SDS011;47544;52.484;4.658;2023-04-01T00:56:59;70.57;;;12.32;;
61638;SDS011;47544;52.484;4.658;2023-04-01T00:57:12;63.40;;;12.50;;
61638;SDS011;47544;52.484;4.658;2023-04-01T00:57:27;61.90;;;13.10;;
61638;SDS011;47544;52.484;4.658;2023-04-01T00:57:40;65.30;;;13.32;;
61638;SDS011;47544;52.484;4.658;2023-04-01T00:57:52;66.05;;;13.48;;
61638;SDS011;47544;52.484;4.658;2023-04-01T00:58:05;74.95;;;13.80;;
61638;SDS011;47544;52.484;4.658;2023-04-01T00:58:19;107.68;;;15.27;;
61638;SDS011;47544;52.484;4.658;2023-04-01T00:58:32;105.38;;;14.15;;
61638;SDS011;47544;52.484;4.658;2023-04-01T00:58:46;54.45;;;11.52;;
61638;SDS011;47544;52.484;4.658;2023-04-01T00:59:00;68.40;;;12.43;;
61638;SDS011;47544;52.484;4.658;2023-04-01T00:59:13;92.72;;;13.13;;
61638;SDS011;47544;52.484;4.658;2023-04-01T00:59:25;86.80;;;12.38;;
61638;SDS011;47544;52.484;4.658;2023-04-01T00:59:39;65.53;;;11.18;;
61638;SDS011;47544;52.484;4.658;2023-04-01T00:59:52;56.28;;;11.07;;
61638;SDS011;47544;52.484;4.658;2023-04-01T01:00:05;64.43;;;12.13;;
61638;SDS011;47544;52.484;4.658;2023-04-01T01:00:17;70.65;;;12.38;;
61638;SDS011;47544;52.484;4.658;2023-04-01T01:00:28;66.22;;;12.18;;
61638;SDS011;47544;52.484;4.658;2023-04-01T01:00:42;57.97;;;11.45;;
61638;SDS011;47544;52.484;4.658;2023-04-01T01:00:53;57.25;;;11.13;;
61638;SDS011;47544;52.484;4.658;2023-04-01T01:01:05;62.88;;;11.65;;
61638;SDS011;47544;52.484;4.658;2023-04-01T01:01:16;60.83;;;11.98;;
61638;SDS011;47544;52.484;4.658;2023-04-01T01:01:27;54.38;;;11.10;;
61638;SDS011;47544;52.484;4.658;2023-04-01T01:01:40;53.58;;;10.60;;
61638;SDS011;47544;52.484;4.658;2023-04-01T01:01:52;51.70;;;10.23;;
61638;SDS011;47544;52.484;4.658;2023-04-01T01:02:04;50.10;;;10.18;;
61638;SDS011;47544;52.484;4.658;2023-04-01T01:02:16;49.40;;;10.43;;
61638;SDS011;47544;52.484;4.658;2023-04-01T01:02:27;47.45;;;10.07;;
61638;SDS011;47544;52.484;4.658;2023-04-01T01:02:38;49.05;;;9.90;;
61638;SDS011;47544;52.484;4.658;2023-04-01T01:02:51;51.80;;;10.23;;
61638;SDS011;47544;52.484;4.658;2023-04-01T01:03:02;58.22;;;11.32;;
61638;SDS011;47544;52.484;4.658;2023-04-01T01:03:13;59.35;;;12.15;;
61638;SDS011;47544;52.484;4.658;2023-04-01T01:03:25;60.40;;;12.43;;
61638;SDS011;47544;52.484;4.658;2023-04-01T01:03:36;60.58;;;12.02;;
61638;SDS011;47544;52.484;4.658;2023-04-01T01:03:47;54.72;;;10.50;;
61638;SDS011;47544;52.484;4.658;2023-04-01T01:03:58;46.58;;;9.57;;
61638;SDS011;47544;52.484;4.658;2023-04-01T01:04:20;45.08;;;9.38;;
61638;SDS011;47544;52.484;4.658;2023-04-01T01:04:32;45.78;;;9.23;;
61638;SDS011;47544;52.484;4.658;2023-04-01T01:04:44;47.80;;;9.43;;
61638;SDS011;47544;52.484;4.658;2023-04-01T01:04:55;48.17;;;9.75;;
61638;SDS011;47544;52.484;4.658;2023-04-01T01:05:06;44.13;;;9.10;;
61638;SDS011;47544;52.484;4.658;2023-04-01T01:05:19;45.63;;;9.05;;
61638;SDS011;47544;52.484;4.658;2023-04-01T01:05:37;46.83;;;9.35;;
61638;SDS011;47544;52.484;4.658;2023-04-01T01:06:24;51.20;;;10.27;;
61638;SDS011;47544;52.484;4.658;2023-04-01T01:06:39;48.47;;;10.23;;
61638;SDS011;47544;52.484;4.658;2023-04-01T01:06:56;48.13;;;9.90;;
61638;SDS011;47544;52.484;4.658;2023-04-01T01:07:12;48.22;;;9.98;;
61638;SDS011;47544;52.484;4.658;2023-04-01T01:07:26;43.28;;;8.82;;
61638;SDS011;47544;52.484;4.658;2023-04-01T01:07:41;41.00;;;7.95;;
61638;SDS011;47544;52.484;4.658;2023-04-01T01:07:56;45.58;;;9.10;;
61638;SDS011;47544;52.484;4.658;2023-04-01T01:08:13;39.92;;;9.30;;
61638;SDS011;47544;52.484;4.658;2023-04-01T01:08:28;37.80;;;8.32;;
61638;SDS011;47544;52.484;4.658;2023-04-01T01:08:47;40.80;;;7.78;;
61638;SDS011;47544;52.484;4.658;2023-04-01T01:09:06;42.97;;;8.32;;
61638;SDS011;47544;52.484;4.658;2023-04-01T01:09:22;43.30;;;8.98;;
61638;SDS011;47544;52.484;4.658;2023-04-01T01:09:39;43.15;;;8.45;;
61638;SDS011;47544;52.484;4.658;2023-04-01T01:09:54;44.38;;;8.15;;
61638;SDS011;47544;52.484;4.658;2023-04-01T01:10:09;34.88;;;7.15;;
61638;SDS011;47544;52.484;4.658;2023-04-01T01:10:22;35.53;;;7.30;;
61638;SDS011;47544;52.484;4.658;2023-04-01T01:10:34;43.28;;;8.07;;
61638;SDS011;47544;52.484;4.658;2023-04-01T01:10:46;46.60;;;8.43;;
61638;SDS011;47544;52.484;4.658;2023-04-01T01:11:00;62.97;;;9.15;;
61638;SDS011;47544;52.484;4.658;2023-04-01T01:11:12;64.45;;;9.48;;
61638;SDS011;47544;52.484;4.658;2023-04-01T01:11:26;50.25;;;9.02;;